Latest Weather Observations for Bellambi

IDN60901

Issued at 5:31 pm EDT Friday 19 December 2014 (issued every 10 minutes, with the page automatically refreshed every 10 minutes)

About weather observations | Map of Sydney area stations | Latest observations for Sydney area | Other Formats
Station Details ID: 068228 Name: BELLAMBI AWS Lat: -34.37 Lon: 150.93 Height: 10.0 m
Data from the previous 72 hours. | See also: Recent months at Bellambi
Date/Time
EDT
Tmp

°C
App
Tmp
°C
Dew
Point
°C
Rel
Hum
%
Delta-T

°C
Wind Press
QNH
hPa
Press
MSL
hPa
Rain
since
9 am
mm
Dir
 
Spd
km/h
Gust
km/h
Spd
kts
Gust
kts
19/05:30pm 19.2 15.6 10.5 57 4.7 SSE 20 26 11 14 - - 0.0
19/05:00pm 19.5 15.4 10.2 55 5.0 SSE 22 28 12 15 - - 0.0
19/04:30pm 19.6 16.1 10.9 57 4.7 SSE 20 26 11 14 - - 0.0
19/04:00pm 19.5 15.4 11.3 59 4.5 SSE 24 30 13 16 - - 0.0
19/03:30pm 20.1 16.3 11.1 56 4.9 SSE 22 28 12 15 - - 0.0
19/03:00pm 19.7 15.7 10.4 55 5.0 SSE 22 26 12 14 - - 0.0
19/02:30pm 19.9 16.6 11.7 59 4.5 SSE 20 28 11 15 - - 0.0
19/02:00pm 20.1 16.7 11.1 56 4.9 SSE 20 26 11 14 - - 0.0
19/01:30pm 19.8 15.9 10.8 56 4.9 SSE 22 28 12 15 - - 0.0
19/01:00pm 19.2 14.9 10.7 58 4.6 S 24 32 13 17 - - 0.0
19/12:30pm 19.4 15.3 11.4 60 4.4 S 24 32 13 17 - - 0.0
19/12:00pm 18.9 14.2 10.5 58 4.5 SSE 26 33 14 18 - - 0.0
19/11:30am 19.1 13.8 11.4 61 4.2 S 30 37 16 20 - - 0.0
19/11:00am 18.9 14.1 11.7 63 4.0 SSE 28 35 15 19 - - 0.0
19/10:30am 18.9 13.3 11.5 62 4.1 S 32 39 17 21 - - 0.0
19/10:00am 19.0 13.4 12.0 64 3.9 S 33 43 18 23 - - 0.0
19/09:30am 19.2 13.8 12.9 67 3.6 S 33 41 18 22 - - 0.0
19/09:00am 19.1 13.6 12.6 66 3.6 S 33 39 18 21 - - 0.0
19/08:30am 19.1 14.8 13.1 68 3.4 SSW 28 35 15 19 - - 0.0
19/08:00am 18.8 14.2 13.4 71 3.1 SSW 30 35 16 19 - - 0.0
19/07:30am 18.5 14.3 13.6 73 2.8 SSW 28 37 15 20 - - 0.0
19/07:00am 17.9 14.7 13.2 74 2.6 SW 22 30 12 16 - - 0.0
19/06:30am 17.3 14.4 12.8 75 2.5 SW 20 30 11 16 - - 0.0
19/05:30am 17.5 10.9 13.6 78 2.2 SSW 41 54 22 29 - - 0.0
19/05:00am 17.6 11.1 13.9 79 2.1 SSW 41 50 22 27 - - 0.0
19/04:30am 18.1 10.4 14.4 79 2.1 SSW 48 57 26 31 - - 0.0
19/04:00am 18.4 12.7 15.3 82 1.8 SSW 39 50 21 27 - - 0.0
19/03:30am 18.7 11.9 15.8 83 1.7 SSW 46 61 25 33 - - 0.0
19/03:11am 19.2 13.2 15.5 79 2.2 S 41 63 22 34 - - 0.0
19/03:04am 20.8 18.4 15.4 71 3.2 WSW 22 48 12 26 - - 0.0
19/03:00am 21.7 19.0 13.6 60 4.7 W 20 28 11 15 - - 0.0
19/02:30am 21.5 21.7 18.5 83 1.9 W 15 28 8 15 - - 0.0
19/02:00am 21.4 22.6 19.0 86 1.5 WNW 11 19 6 10 - - 0.0
19/01:30am 21.7 21.9 19.4 87 1.5 WNW 17 24 9 13 - - 0.0
19/01:00am 20.3 23.2 18.2 88 1.3 CALM 0 6 0 3 - - 0.0
19/12:30am 20.3 22.8 18.2 88 1.3 NW 2 7 1 4 - - 0.0
 
Date/Time
EDT
Tmp

°C
App
Tmp
°C
Dew
Point
°C
Rel
Hum
%
Delta-T

°C
Wind Press
QNH
hPa
Press
MSL
hPa
Rain
since
9 am
mm
Dir
 
Spd
km/h
Gust
km/h
Spd
kts
Gust
kts
18/11:30pm 20.2 23.2 18.5 90 1.1 CALM 0 0 0 0 - - 0.0
18/11:00pm 19.9 22.8 18.2 90 1.1 CALM 0 0 0 0 - - 0.0
18/10:30pm 20.5 23.7 18.8 90 1.1 CALM 0 0 0 0 - - 0.0
18/10:00pm 20.4 22.4 18.7 90 1.1 N 6 9 3 5 - - 0.0
18/09:30pm 20.3 21.7 18.6 90 1.1 NNE 9 11 5 6 - - 0.0
18/09:00pm 20.4 21.4 18.7 90 1.1 NNE 11 15 6 8 - - 0.0
18/08:30pm 20.6 21.0 18.9 90 1.1 N 15 17 8 9 - - 0.0
18/08:00pm 20.7 20.1 18.8 89 1.2 NE 20 24 11 13 - - 0.0
18/07:30pm 21.0 22.1 18.8 87 1.4 NNE 11 20 6 11 - - 0.0
18/07:00pm 21.6 21.6 19.0 85 1.6 NNE 17 26 9 14 - - 0.0
18/06:30pm 21.7 22.4 18.9 84 1.8 N 13 19 7 10 - - 0.0
18/05:30pm 22.1 23.6 18.9 82 2.0 N 9 13 5 7 - - 0.0
18/05:00pm 21.9 23.6 18.5 81 2.1 N 7 11 4 6 - - 0.0
18/04:30pm 23.0 23.2 19.4 80 2.3 NE 17 22 9 12 - - 0.0
18/04:00pm 22.7 23.4 18.9 79 2.4 NNE 13 19 7 10 - - 0.0
18/03:30pm 22.4 22.0 18.8 80 2.3 NNE 19 20 10 11 - - 0.0
18/03:00pm 21.8 22.3 18.4 81 2.1 N 13 17 7 9 - - 0.0
18/02:30pm 21.7 22.1 18.1 80 2.2 N 13 15 7 8 - - 0.0
18/02:00pm 22.6 23.3 18.8 79 2.4 NNE 13 19 7 10 - - 0.0
18/01:30pm 22.3 22.9 18.5 79 2.4 NNE 13 17 7 9 - - 0.0
18/01:00pm 21.0 21.7 17.0 78 2.4 N 9 11 5 6 - - 0.0
18/12:30pm 20.9 21.6 17.1 79 2.3 N 9 11 5 6 - - 0.0
18/12:00pm 21.1 22.0 17.5 80 2.2 NNE 9 11 5 6 - - 0.0
18/11:30am 20.4 20.8 16.4 78 2.4 NE 9 13 5 7 - - 0.0
18/11:00am 20.4 20.1 16.4 78 2.4 ENE 13 15 7 8 - - 0.0
18/10:30am 20.8 21.5 16.2 75 2.8 ENE 7 9 4 5 - - 0.0
18/10:00am 20.7 21.0 16.1 75 2.8 NE 9 11 5 6 - - 0.0
18/09:30am 20.5 19.9 15.7 74 2.9 NE 13 15 7 8 - - 0.0
18/09:00am 20.0 19.8 15.6 76 2.6 N 11 13 6 7 - - 0.0
18/08:30am 19.5 19.6 15.4 77 2.4 N 9 13 5 7 - - 0.0
18/08:00am 19.1 19.3 14.8 76 2.5 N 7 9 4 5 - - 0.0
18/07:30am 18.9 19.1 14.8 77 2.4 N 7 9 4 5 - - 0.0
18/07:00am 18.6 18.3 14.5 77 2.4 N 9 11 5 6 - - 0.0
18/06:30am 18.4 18.4 14.3 77 2.4 NNW 7 9 4 5 - - 0.0
18/06:00am 18.2 18.2 14.1 77 2.3 NW 7 9 4 5 - - 0.0
18/05:30am 18.1 17.3 14.0 77 2.3 NNW 11 13 6 7 - - 0.0
18/05:00am 18.0 17.1 13.7 76 2.4 NNW 11 15 6 8 - - 0.0
18/04:30am 18.1 17.2 13.8 76 2.4 NNW 11 15 6 8 - - 0.0
18/04:00am 18.0 16.3 13.7 76 2.4 NNW 15 17 8 9 - - 0.0
18/03:30am 18.1 16.8 13.6 75 2.6 N 13 17 7 9 - - 0.0
18/03:00am 18.0 16.3 13.5 75 2.5 NNW 15 17 8 9 - - 0.0
18/02:30am 17.9 17.0 13.6 76 2.4 NNW 11 13 6 7 - - 0.0
18/02:00am 18.1 17.2 13.6 75 2.6 N 11 15 6 8 - - 0.0
18/01:30am 17.9 17.8 13.4 75 2.5 N 6 9 3 5 - - 0.0
18/01:00am 17.6 17.3 13.3 76 2.4 WSW 7 9 4 5 - - 0.0
18/12:30am 17.5 16.7 13.0 75 2.5 SW 9 11 5 6 - - 0.0
18/12:00am 17.7 17.3 13.0 74 2.6 SW 7 11 4 6 - - 0.0
 
Date/Time
EDT
Tmp

°C
App
Tmp
°C
Dew
Point
°C
Rel
Hum
%
Delta-T

°C
Wind Press
QNH
hPa
Press
MSL
hPa
Rain
since
9 am
mm
Dir
 
Spd
km/h
Gust
km/h
Spd
kts
Gust
kts
17/11:30pm 18.0 18.5 12.9 72 2.9 WSW 2 7 1 4 - - 0.0
17/11:00pm 18.2 18.6 12.6 70 3.1 SE 2 7 1 4 - - 0.0
17/10:30pm 18.1 19.0 13.0 72 2.9 CALM 0 0 0 0 - - 0.0
17/10:00pm 18.0 17.8 12.9 72 2.9 NNE 6 13 3 7 - - 0.0
17/09:30pm 18.1 17.3 12.8 71 3.0 SE 9 13 5 7 - - 0.0
17/09:00pm 18.2 16.3 12.9 71 3.0 ESE 15 20 8 11 - - 0.0
17/08:30pm 18.4 16.8 12.8 70 3.1 ESE 13 19 7 10 - - 0.0
17/08:00pm 18.8 17.0 13.2 70 3.2 ESE 15 22 8 12 - - 0.0
17/07:30pm 18.5 16.1 12.5 68 3.3 SE 17 24 9 13 - - 0.0
17/07:00pm 18.8 16.2 13.2 70 3.2 SSE 19 20 10 11 - - 0.0
17/06:30pm 18.7 16.1 13.1 70 3.2 SSE 19 24 10 13 - - 0.0
17/06:00pm 18.7 16.3 12.7 68 3.4 SSE 17 20 9 11 - - 0.0
17/05:30pm 19.1 16.5 13.3 69 3.3 SSE 19 20 10 11 - - 0.0
17/05:00pm 19.1 16.7 12.6 66 3.6 SSE 17 20 9 11 - - 0.0
17/04:30pm 19.2 16.8 12.7 66 3.6 SSE 17 22 9 12 - - 0.0
17/04:00pm 19.4 16.5 12.4 64 3.9 SSE 19 22 10 12 - - 0.0
17/03:30pm 19.6 16.8 12.6 64 3.9 SSE 19 24 10 13 - - 0.0
17/03:00pm 19.4 16.2 11.9 62 4.2 SSE 20 26 11 14 - - 0.0
17/02:30pm 20.2 17.2 12.7 62 4.2 SSE 20 26 11 14 - - 0.0
17/02:00pm 20.0 17.0 12.7 63 4.1 SSE 20 26 11 14 - - 0.0
17/01:30pm 19.2 15.6 11.7 62 4.1 S 22 28 12 15 - - 0.0
17/01:00pm 19.2 15.4 12.5 65 3.7 SSE 24 30 13 16 - - 0.0
17/12:30pm 19.9 16.0 12.2 61 4.3 SSE 24 30 13 16 - - 0.0
17/12:00pm 19.6 15.5 12.6 64 3.9 SSE 26 35 14 19 - - 0.0
17/11:30am 20.1 15.6 12.6 62 4.2 SSE 28 35 15 19 - - 0.0
17/11:00am 19.6 14.2 12.1 62 4.2 S 32 37 17 20 - - 0.0
17/10:30am 19.6 14.2 12.8 65 3.8 S 33 41 18 22 - - 0.0
17/10:00am 19.3 13.6 13.0 67 3.6 S 35 39 19 21 - - 0.0
17/09:30am 19.5 13.9 13.2 67 3.6 S 35 43 19 23 - - 0.0
17/09:00am 19.2 14.0 13.4 69 3.3 S 33 39 18 21 - - 0.0
17/08:30am 18.8 13.5 14.1 74 2.7 SSW 35 41 19 22 - - 0.0
17/08:00am 18.8 13.8 14.1 74 2.7 SSW 33 39 18 21 - - 0.0
17/07:30am 18.9 13.7 14.4 75 2.6 SSW 35 43 19 23 - - 0.0
17/07:00am 18.8 12.8 14.5 76 2.5 SSW 39 46 21 25 - - 0.0
17/06:30am 18.6 12.3 14.5 77 2.4 SSW 41 50 22 27 - - 0.0
17/06:00am 18.6 11.4 14.7 78 2.3 SSW 46 59 25 32 - - 0.0
17/05:30am 18.6 9.9 14.7 78 2.3 SSW 54 63 29 34 - - 0.0
17/05:00am 18.8 11.4 15.3 80 2.1 SSW 48 63 26 34 - - 0.0
17/04:30am 18.9 11.2 15.6 81 1.9 SSW 50 72 27 39 - - 0.0
17/04:21am 19.1 11.2 16.0 82 1.8 SSW 52 72 28 39 - - 0.0
17/04:00am 19.8 12.0 16.1 79 2.2 SSW 52 65 28 35 - - 0.0
17/03:52am 20.2 12.0 16.2 78 2.4 SSW 54 67 29 36 - - 0.0
17/03:32am 20.9 17.1 14.8 68 3.6 SSW 28 63 15 34 - - 0.0
17/03:30am 21.4 19.2 14.8 66 3.9 SW 20 50 11 27 - - 0.0
17/03:28am 22.6 21.1 15.2 63 4.4 W 17 50 9 27 - - 0.0
17/03:00am 23.9 21.7 16.9 65 4.3 WNW 24 33 13 18 - - 0.0
17/02:30am 21.5 22.9 17.7 79 2.3 ESE 7 9 4 5 - - 0.0
17/02:00am 22.7 23.6 18.5 77 2.6 NW 11 19 6 10 - - 0.0
17/01:30am 21.4 21.0 19.0 86 1.5 NNW 19 22 10 12 - - 0.0
17/01:00am 19.7 21.5 18.2 91 0.9 SE 6 9 3 5 - - 0.0
17/12:30am 19.1 21.0 17.6 91 0.9 S 4 11 2 6 - - 0.0
17/12:00am 18.9 21.4 17.2 90 1.0 CALM 0 0 0 0 - - 0.0
 
Date/Time
EDT
Tmp

°C
App
Tmp
°C
Dew
Point
°C
Rel
Hum
%
Delta-T

°C
Wind Press
QNH
hPa
Press
MSL
hPa
Rain
since
9 am
mm
Dir
 
Spd
km/h
Gust
km/h
Spd
kts
Gust
kts
16/11:30pm 19.1 21.6 17.2 89 1.2 CALM 0 0 0 0 - - 0.0
16/11:00pm 19.6 20.6 17.7 89 1.2 S 9 11 5 6 - - 0.0
16/10:30pm 19.6 22.2 17.6 88 1.2 CALM 0 0 0 0 - - 0.0
16/10:00pm 19.9 21.0 17.9 88 1.2 NW 9 11 5 6 - - 0.0
16/09:30pm 20.2 21.3 18.0 87 1.4 NNE 9 13 5 7 - - 0.0
16/09:00pm 20.5 21.0 18.3 87 1.4 N 13 17 7 9 - - 0.0
16/08:30pm 20.7 20.5 18.5 87 1.4 NNE 17 22 9 12 - - 0.0
16/08:00pm 20.9 21.3 18.1 84 1.7 N 13 20 7 11 - - 0.0
16/07:30pm 21.5 20.6 18.3 82 2.0 NNE 20 33 11 18 - - 0.0
16/07:00pm 21.8 18.7 18.4 81 2.1 NE 32 41 17 22 - - 0.0
16/06:30pm 21.9 18.6 18.3 80 2.2 NE 33 39 18 21 - - 0.0
16/06:00pm 22.7 20.1 18.7 78 2.5 NE 30 35 16 19 - - 0.0

Latest Capital City Observations: Canberra | Sydney | Melbourne | Brisbane | Adelaide | Perth | Hobart | Darwin

Other Formats:

Comma delimited format used in spreadsheet applications
http://www.bom.gov.au/fwo/IDN60901/IDN60901.94749.axf

JavaScript Object Notation format (JSON) in row-major order
http://www.bom.gov.au/fwo/IDN60901/IDN60901.94749.json